sensor_id;sensor_type;location;lat;lon;timestamp;temperature;humidity
5675;DHT22;2860;54.284;10.158;2023-09-19T00:02:16;15.40;99.90
5675;DHT22;2860;54.284;10.158;2023-09-19T00:04:42;15.50;99.90
5675;DHT22;2860;54.284;10.158;2023-09-19T00:07:08;15.50;99.90
5675;DHT22;2860;54.284;10.158;2023-09-19T00:09:34;15.50;99.90
5675;DHT22;2860;54.284;10.158;2023-09-19T00:12:05;15.50;99.90
5675;DHT22;2860;54.284;10.158;2023-09-19T00:14:30;15.60;99.90
5675;DHT22;2860;54.284;10.158;2023-09-19T00:16:59;15.60;99.90
5675;DHT22;2860;54.284;10.158;2023-09-19T00:19:26;15.60;99.90
5675;DHT22;2860;54.284;10.158;2023-09-19T00:21:51;15.60;99.90
5675;DHT22;2860;54.284;10.158;2023-09-19T00:24:18;15.60;99.90
5675;DHT22;2860;54.284;10.158;2023-09-19T00:26:44;15.60;99.90
5675;DHT22;2860;54.284;10.158;2023-09-19T00:29:11;15.60;99.90
5675;DHT22;2860;54.284;10.158;2023-09-19T00:31:39;15.60;99.90
5675;DHT22;2860;54.284;10.158;2023-09-19T00:34:04;15.60;99.90
5675;DHT22;2860;54.284;10.158;2023-09-19T00:36:36;15.60;99.90
5675;DHT22;2860;54.284;10.158;2023-09-19T00:39:04;15.50;99.90
5675;DHT22;2860;54.284;10.158;2023-09-19T00:41:33;15.50;99.90
5675;DHT22;2860;54.284;10.158;2023-09-19T00:44:01;15.50;99.90
5675;DHT22;2860;54.284;10.158;2023-09-19T00:46:27;15.40;99.90
5675;DHT22;2860;54.284;10.158;2023-09-19T00:48:53;15.50;99.90
5675;DHT22;2860;54.284;10.158;2023-09-19T00:51:20;15.50;99.90
5675;DHT22;2860;54.284;10.158;2023-09-19T00:53:47;15.50;99.90
5675;DHT22;2860;54.284;10.158;2023-09-19T00:56:14;15.50;99.90
5675;DHT22;2860;54.284;10.158;2023-09-19T00:58:40;15.60;99.90
5675;DHT22;2860;54.284;10.158;2023-09-19T01:01:06;15.50;99.90
5675;DHT22;2860;54.284;10.158;2023-09-19T01:03:33;15.50;99.90
5675;DHT22;2860;54.284;10.158;2023-09-19T01:06:02;15.40;99.90
5675;DHT22;2860;54.284;10.158;2023-09-19T01:08:28;15.40;99.90
5675;DHT22;2860;54.284;10.158;2023-09-19T01:11:11;15.40;99.90
5675;DHT22;2860;54.284;10.158;2023-09-19T01:13:58;15.30;99.90
5675;DHT22;2860;54.284;10.158;2023-09-19T01:16:42;15.30;99.90
5675;DHT22;2860;54.284;10.158;2023-09-19T01:21:44;15.30;99.90
5675;DHT22;2860;54.284;10.158;2023-09-19T01:27:34;15.30;99.90
5675;DHT22;2860;54.284;10.158;2023-09-19T01:30:10;15.30;99.90
5675;DHT22;2860;54.284;10.158;2023-09-19T01:32:39;15.30;99.90
5675;DHT22;2860;54.284;10.158;2023-09-19T01:35:07;15.30;99.90
5675;DHT22;2860;54.284;10.158;2023-09-19T01:37:37;15.30;99.90
5675;DHT22;2860;54.284;10.158;2023-09-19T01:40:08;15.30;99.90
5675;DHT22;2860;54.284;10.158;2023-09-19T01:43:03;15.20;99.90
5675;DHT22;2860;54.284;10.158;2023-09-19T01:48:30;15.20;99.90
5675;DHT22;2860;54.284;10.158;2023-09-19T01:51:00;15.10;99.90
5675;DHT22;2860;54.284;10.158;2023-09-19T01:53:42;15.10;99.90
5675;DHT22;2860;54.284;10.158;2023-09-19T01:56:15;15.10;99.90
5675;DHT22;2860;54.284;10.158;2023-09-19T01:58:46;15.10;99.90
5675;DHT22;2860;54.284;10.158;2023-09-19T02:01:17;15.10;99.90
5675;DHT22;2860;54.284;10.158;2023-09-19T02:03:44;15.00;99.90
5675;DHT22;2860;54.284;10.158;2023-09-19T02:06:18;15.00;99.90
5675;DHT22;2860;54.284;10.158;2023-09-19T02:08:45;15.00;99.90
5675;DHT22;2860;54.284;10.158;2023-09-19T02:11:11;15.00;99.90
5675;DHT22;2860;54.284;10.158;2023-09-19T02:13:38;15.00;99.90
5675;DHT22;2860;54.284;10.158;2023-09-19T02:16:04;15.00;99.90
5675;DHT22;2860;54.284;10.158;2023-09-19T02:18:34;14.90;99.90
5675;DHT22;2860;54.284;10.158;2023-09-19T02:21:04;14.90;99.90
5675;DHT22;2860;54.284;10.158;2023-09-19T02:23:32;14.80;99.90
5675;DHT22;2860;54.284;10.158;2023-09-19T02:25:59;14.80;99.90
5675;DHT22;2860;54.284;10.158;2023-09-19T02:28:27;14.70;99.90
5675;DHT22;2860;54.284;10.158;2023-09-19T02:30:57;14.70;99.90
5675;DHT22;2860;54.284;10.158;2023-09-19T02:33:23;14.70;99.90
5675;DHT22;2860;54.284;10.158;2023-09-19T02:35:48;14.60;99.90
5675;DHT22;2860;54.284;10.158;2023-09-19T02:38:14;14.60;99.90
5675;DHT22;2860;54.284;10.158;2023-09-19T02:40:43;14.60;99.90
5675;DHT22;2860;54.284;10.158;2023-09-19T02:43:09;14.50;99.90
5675;DHT22;2860;54.284;10.158;2023-09-19T02:45:35;14.50;99.90
5675;DHT22;2860;54.284;10.158;2023-09-19T02:48:00;14.40;99.90
5675;DHT22;2860;54.284;10.158;2023-09-19T02:50:27;14.40;99.90
5675;DHT22;2860;54.284;10.158;2023-09-19T02:52:53;14.30;99.90
5675;DHT22;2860;54.284;10.158;2023-09-19T02:55:20;14.30;99.90
5675;DHT22;2860;54.284;10.158;2023-09-19T02:57:51;14.20;99.90
5675;DHT22;2860;54.284;10.158;2023-09-19T03:00:18;14.20;99.90
5675;DHT22;2860;54.284;10.158;2023-09-19T03:02:48;14.20;99.90
5675;DHT22;2860;54.284;10.158;2023-09-19T03:05:14;14.20;99.90
5675;DHT22;2860;54.284;10.158;2023-09-19T03:07:39;14.20;99.90
5675;DHT22;2860;54.284;10.158;2023-09-19T03:10:08;14.20;99.90
5675;DHT22;2860;54.284;10.158;2023-09-19T03:12:34;14.30;99.90
5675;DHT22;2860;54.284;10.158;2023-09-19T03:15:00;14.30;99.90
5675;DHT22;2860;54.284;10.158;2023-09-19T03:17:25;14.40;99.90
5675;DHT22;2860;54.284;10.158;2023-09-19T03:19:51;14.40;99.90
5675;DHT22;2860;54.284;10.158;2023-09-19T03:22:16;14.40;99.90
5675;DHT22;2860;54.284;10.158;2023-09-19T03:24:42;14.50;99.90
5675;DHT22;2860;54.284;10.158;2023-09-19T03:27:09;14.50;99.90
5675;DHT22;2860;54.284;10.158;2023-09-19T03:29:35;14.50;99.90
5675;DHT22;2860;54.284;10.158;2023-09-19T03:32:01;14.60;99.90
5675;DHT22;2860;54.284;10.158;2023-09-19T03:34:27;14.60;99.90
5675;DHT22;2860;54.284;10.158;2023-09-19T03:36:52;14.60;99.90
5675;DHT22;2860;54.284;10.158;2023-09-19T03:39:18;14.60;99.90
5675;DHT22;2860;54.284;10.158;2023-09-19T03:41:43;14.60;99.90
5675;DHT22;2860;54.284;10.158;2023-09-19T03:44:09;14.60;99.90
5675;DHT22;2860;54.284;10.158;2023-09-19T03:46:34;14.50;99.90
5675;DHT22;2860;54.284;10.158;2023-09-19T03:49:01;14.40;99.90
5675;DHT22;2860;54.284;10.158;2023-09-19T03:51:27;14.40;99.90
5675;DHT22;2860;54.284;10.158;2023-09-19T03:53:52;14.30;99.90
5675;DHT22;2860;54.284;10.158;2023-09-19T03:56:17;14.30;99.90
5675;DHT22;2860;54.284;10.158;2023-09-19T03:58:43;14.30;99.90
5675;DHT22;2860;54.284;10.158;2023-09-19T04:01:08;14.20;99.90
5675;DHT22;2860;54.284;10.158;2023-09-19T04:03:34;14.20;99.90
5675;DHT22;2860;54.284;10.158;2023-09-19T04:06:11;14.10;99.90
5675;DHT22;2860;54.284;10.158;2023-09-19T04:08:37;14.00;99.90
5675;DHT22;2860;54.284;10.158;2023-09-19T04:11:02;14.00;99.90
5675;DHT22;2860;54.284;10.158;2023-09-19T04:13:28;14.00;99.90
5675;DHT22;2860;54.284;10.158;2023-09-19T04:15:54;13.90;99.90
5675;DHT22;2860;54.284;10.158;2023-09-19T04:18:19;13.90;99.90
5675;DHT22;2860;54.284;10.158;2023-09-19T04:20:49;13.80;99.90
5675;DHT22;2860;54.284;10.158;2023-09-19T04:23:15;13.80;99.90
5675;DHT22;2860;54.284;10.158;2023-09-19T04:25:42;13.80;99.90
5675;DHT22;2860;54.284;10.158;2023-09-19T04:28:08;13.70;99.90
5675;DHT22;2860;54.284;10.158;2023-09-19T04:30:35;13.70;99.90
5675;DHT22;2860;54.284;10.158;2023-09-19T04:33:01;13.70;99.90
5675;DHT22;2860;54.284;10.158;2023-09-19T04:35:27;13.70;99.90
5675;DHT22;2860;54.284;10.158;2023-09-19T04:37:57;13.70;99.90
5675;DHT22;2860;54.284;10.158;2023-09-19T04:40:22;13.70;99.90
5675;DHT22;2860;54.284;10.158;2023-09-19T04:42:58;13.60;99.90
5675;DHT22;2860;54.284;10.158;2023-09-19T04:45:26;13.60;99.90
5675;DHT22;2860;54.284;10.158;2023-09-19T04:47:52;13.60;99.90
5675;DHT22;2860;54.284;10.158;2023-09-19T04:50:18;13.50;99.90
5675;DHT22;2860;54.284;10.158;2023-09-19T04:52:45;13.40;99.90
5675;DHT22;2860;54.284;10.158;2023-09-19T04:55:11;13.40;99.90
5675;DHT22;2860;54.284;10.158;2023-09-19T04:57:42;13.30;99.90
5675;DHT22;2860;54.284;10.158;2023-09-19T05:00:08;13.30;99.90
5675;DHT22;2860;54.284;10.158;2023-09-19T05:02:38;13.30;99.90
5675;DHT22;2860;54.284;10.158;2023-09-19T05:05:05;13.30;99.90
5675;DHT22;2860;54.284;10.158;2023-09-19T05:07:31;13.30;99.90
5675;DHT22;2860;54.284;10.158;2023-09-19T05:09:57;13.30;99.90
5675;DHT22;2860;54.284;10.158;2023-09-19T05:12:22;13.30;99.90
5675;DHT22;2860;54.284;10.158;2023-09-19T05:14:48;13.30;99.90
5675;DHT22;2860;54.284;10.158;2023-09-19T05:17:13;13.30;99.90
5675;DHT22;2860;54.284;10.158;2023-09-19T05:19:42;13.30;99.90
5675;DHT22;2860;54.284;10.158;2023-09-19T05:22:08;13.40;99.90
5675;DHT22;2860;54.284;10.158;2023-09-19T05:24:33;13.40;99.90
5675;DHT22;2860;54.284;10.158;2023-09-19T05:26:59;13.50;99.90
5675;DHT22;2860;54.284;10.158;2023-09-19T05:29:24;13.50;99.90
5675;DHT22;2860;54.284;10.158;2023-09-19T05:31:50;13.50;99.90
5675;DHT22;2860;54.284;10.158;2023-09-19T05:34:16;13.60;99.90
5675;DHT22;2860;54.284;10.158;2023-09-19T05:36:42;13.60;99.90
5675;DHT22;2860;54.284;10.158;2023-09-19T05:39:08;13.70;99.90
5675;DHT22;2860;54.284;10.158;2023-09-19T05:41:35;13.80;99.90
5675;DHT22;2860;54.284;10.158;2023-09-19T05:44:02;13.80;99.90
5675;DHT22;2860;54.284;10.158;2023-09-19T05:46:28;13.90;99.90
5675;DHT22;2860;54.284;10.158;2023-09-19T05:48:55;13.80;99.90
5675;DHT22;2860;54.284;10.158;2023-09-19T05:51:22;13.80;99.90
5675;DHT22;2860;54.284;10.158;2023-09-19T05:53:48;13.80;99.90
5675;DHT22;2860;54.284;10.158;2023-09-19T05:56:14;13.70;99.90
5675;DHT22;2860;54.284;10.158;2023-09-19T05:58:40;13.70;99.90
5675;DHT22;2860;54.284;10.158;2023-09-19T06:01:08;13.70;99.90
5675;DHT22;2860;54.284;10.158;2023-09-19T06:03:35;13.70;99.90
5675;DHT22;2860;54.284;10.158;2023-09-19T06:06:01;13.70;99.90
5675;DHT22;2860;54.284;10.158;2023-09-19T06:08:27;13.70;99.90
5675;DHT22;2860;54.284;10.158;2023-09-19T06:10:53;13.90;99.90
5675;DHT22;2860;54.284;10.158;2023-09-19T06:13:19;14.10;99.90
5675;DHT22;2860;54.284;10.158;2023-09-19T06:15:45;14.20;99.90
5675;DHT22;2860;54.284;10.158;2023-09-19T06:18:12;14.40;99.90
5675;DHT22;2860;54.284;10.158;2023-09-19T06:20:48;14.40;99.90
5675;DHT22;2860;54.284;10.158;2023-09-19T06:23:16;14.50;99.90
5675;DHT22;2860;54.284;10.158;2023-09-19T06:25:42;14.50;99.90
5675;DHT22;2860;54.284;10.158;2023-09-19T06:28:09;14.60;99.90
5675;DHT22;2860;54.284;10.158;2023-09-19T06:30:38;14.60;99.90
5675;DHT22;2860;54.284;10.158;2023-09-19T06:33:05;14.60;99.90
5675;DHT22;2860;54.284;10.158;2023-09-19T06:35:33;14.70;99.90
5675;DHT22;2860;54.284;10.158;2023-09-19T06:38:02;14.80;99.90
5675;DHT22;2860;54.284;10.158;2023-09-19T06:40:28;14.90;99.90
5675;DHT22;2860;54.284;10.158;2023-09-19T06:42:56;15.00;99.90
5675;DHT22;2860;54.284;10.158;2023-09-19T06:45:22;15.00;99.90
5675;DHT22;2860;54.284;10.158;2023-09-19T06:47:49;15.00;99.90
5675;DHT22;2860;54.284;10.158;2023-09-19T06:50:19;15.00;99.90
5675;DHT22;2860;54.284;10.158;2023-09-19T06:52:47;15.00;99.90
5675;DHT22;2860;54.284;10.158;2023-09-19T06:55:18;14.90;99.90
5675;DHT22;2860;54.284;10.158;2023-09-19T06:57:45;14.90;99.90
5675;DHT22;2860;54.284;10.158;2023-09-19T07:00:12;14.80;99.90
5675;DHT22;2860;54.284;10.158;2023-09-19T07:02:44;14.80;99.90
5675;DHT22;2860;54.284;10.158;2023-09-19T07:05:10;14.80;99.90
5675;DHT22;2860;54.284;10.158;2023-09-19T07:07:35;14.80;99.90
5675;DHT22;2860;54.284;10.158;2023-09-19T07:10:04;14.80;99.90
5675;DHT22;2860;54.284;10.158;2023-09-19T07:12:31;14.80;99.90
5675;DHT22;2860;54.284;10.158;2023-09-19T07:14:58;14.90;99.90
5675;DHT22;2860;54.284;10.158;2023-09-19T07:17:23;14.90;99.90
5675;DHT22;2860;54.284;10.158;2023-09-19T07:19:51;14.90;99.90
5675;DHT22;2860;54.284;10.158;2023-09-19T07:22:17;15.00;99.90
5675;DHT22;2860;54.284;10.158;2023-09-19T07:24:42;15.00;99.90
5675;DHT22;2860;54.284;10.158;2023-09-19T07:27:08;15.00;99.90
5675;DHT22;2860;54.284;10.158;2023-09-19T07:29:34;15.00;99.90
5675;DHT22;2860;54.284;10.158;2023-09-19T07:31:59;15.00;99.90
5675;DHT22;2860;54.284;10.158;2023-09-19T07:34:25;15.00;99.90
5675;DHT22;2860;54.284;10.158;2023-09-19T07:36:51;15.10;99.90
5675;DHT22;2860;54.284;10.158;2023-09-19T07:39:16;15.20;99.90
5675;DHT22;2860;54.284;10.158;2023-09-19T07:41:42;15.10;99.90
5675;DHT22;2860;54.284;10.158;2023-09-19T07:44:08;15.10;99.90
5675;DHT22;2860;54.284;10.158;2023-09-19T07:46:35;15.10;99.90
5675;DHT22;2860;54.284;10.158;2023-09-19T07:49:01;15.00;99.90
5675;DHT22;2860;54.284;10.158;2023-09-19T07:51:26;15.10;99.90
5675;DHT22;2860;54.284;10.158;2023-09-19T07:53:52;15.10;99.90
5675;DHT22;2860;54.284;10.158;2023-09-19T07:56:18;15.10;99.90
5675;DHT22;2860;54.284;10.158;2023-09-19T07:58:45;15.10;99.90
5675;DHT22;2860;54.284;10.158;2023-09-19T08:01:11;15.10;99.90
5675;DHT22;2860;54.284;10.158;2023-09-19T08:03:37;15.10;99.90
5675;DHT22;2860;54.284;10.158;2023-09-19T08:06:06;15.00;99.90
5675;DHT22;2860;54.284;10.158;2023-09-19T08:08:36;15.10;99.90
5675;DHT22;2860;54.284;10.158;2023-09-19T08:11:17;15.10;99.90
5675;DHT22;2860;54.284;10.158;2023-09-19T08:13:46;15.10;99.90
5675;DHT22;2860;54.284;10.158;2023-09-19T08:16:17;15.10;99.90
5675;DHT22;2860;54.284;10.158;2023-09-19T08:18:47;15.20;99.90
5675;DHT22;2860;54.284;10.158;2023-09-19T08:21:13;15.30;99.90
5675;DHT22;2860;54.284;10.158;2023-09-19T08:23:40;15.40;99.90
5675;DHT22;2860;54.284;10.158;2023-09-19T08:26:06;15.50;99.90
5675;DHT22;2860;54.284;10.158;2023-09-19T08:28:34;15.60;99.90
5675;DHT22;2860;54.284;10.158;2023-09-19T08:31:06;15.60;99.90
5675;DHT22;2860;54.284;10.158;2023-09-19T08:33:33;15.80;99.90
5675;DHT22;2860;54.284;10.158;2023-09-19T08:35:59;15.90;99.90
5675;DHT22;2860;54.284;10.158;2023-09-19T08:38:24;16.00;99.90
5675;DHT22;2860;54.284;10.158;2023-09-19T08:40:58;16.00;99.90
5675;DHT22;2860;54.284;10.158;2023-09-19T08:43:25;15.90;99.90
5675;DHT22;2860;54.284;10.158;2023-09-19T08:48:31;15.70;99.90
5675;DHT22;2860;54.284;10.158;2023-09-19T08:51:07;15.70;99.90
5675;DHT22;2860;54.284;10.158;2023-09-19T08:56:07;15.70;99.90
5675;DHT22;2860;54.284;10.158;2023-09-19T08:58:43;15.70;99.90
5675;DHT22;2860;54.284;10.158;2023-09-19T09:01:10;15.80;99.90
5675;DHT22;2860;54.284;10.158;2023-09-19T09:03:39;16.00;99.90
5675;DHT22;2860;54.284;10.158;2023-09-19T09:06:08;16.10;99.90
5675;DHT22;2860;54.284;10.158;2023-09-19T09:08:36;16.20;99.90
5675;DHT22;2860;54.284;10.158;2023-09-19T09:11:02;16.20;99.90
5675;DHT22;2860;54.284;10.158;2023-09-19T09:13:28;16.20;99.90
5675;DHT22;2860;54.284;10.158;2023-09-19T09:15:54;16.20;99.90
5675;DHT22;2860;54.284;10.158;2023-09-19T09:18:20;16.20;99.90
5675;DHT22;2860;54.284;10.158;2023-09-19T09:20:45;16.30;99.90
5675;DHT22;2860;54.284;10.158;2023-09-19T09:23:12;16.30;99.90
5675;DHT22;2860;54.284;10.158;2023-09-19T09:25:52;16.30;99.90
5675;DHT22;2860;54.284;10.158;2023-09-19T09:28:25;16.40;99.90
5675;DHT22;2860;54.284;10.158;2023-09-19T09:30:52;16.50;99.90
5675;DHT22;2860;54.284;10.158;2023-09-19T09:33:18;16.60;99.90
5675;DHT22;2860;54.284;10.158;2023-09-19T09:35:58;16.70;99.90
5675;DHT22;2860;54.284;10.158;2023-09-19T09:38:27;16.80;99.90
5675;DHT22;2860;54.284;10.158;2023-09-19T09:40:54;16.80;99.90
5675;DHT22;2860;54.284;10.158;2023-09-19T09:43:36;16.90;99.90
5675;DHT22;2860;54.284;10.158;2023-09-19T09:46:17;17.00;99.90
5675;DHT22;2860;54.284;10.158;2023-09-19T09:51:39;17.30;99.90
5675;DHT22;2860;54.284;10.158;2023-09-19T09:54:15;17.40;99.90
5675;DHT22;2860;54.284;10.158;2023-09-19T09:56:58;17.40;99.90
5675;DHT22;2860;54.284;10.158;2023-09-19T10:02:16;17.50;99.90
5675;DHT22;2860;54.284;10.158;2023-09-19T10:04:57;17.60;99.90
5675;DHT22;2860;54.284;10.158;2023-09-19T10:07:40;17.50;99.90
5675;DHT22;2860;54.284;10.158;2023-09-19T10:10:15;17.60;99.90
5675;DHT22;2860;54.284;10.158;2023-09-19T10:12:47;17.60;99.90
5675;DHT22;2860;54.284;10.158;2023-09-19T10:15:18;17.80;99.90
5675;DHT22;2860;54.284;10.158;2023-09-19T10:17:47;18.00;99.90
5675;DHT22;2860;54.284;10.158;2023-09-19T10:20:17;18.20;99.90
5675;DHT22;2860;54.284;10.158;2023-09-19T10:22:58;18.20;99.90
5675;DHT22;2860;54.284;10.158;2023-09-19T10:25:26;18.20;99.90
5675;DHT22;2860;54.284;10.158;2023-09-19T10:27:54;18.30;99.90
5675;DHT22;2860;54.284;10.158;2023-09-19T10:30:22;18.30;99.90
5675;DHT22;2860;54.284;10.158;2023-09-19T10:33:03;18.10;99.90
5675;DHT22;2860;54.284;10.158;2023-09-19T10:35:29;18.20;99.90
5675;DHT22;2860;54.284;10.158;2023-09-19T10:38:00;18.10;99.90
5675;DHT22;2860;54.284;10.158;2023-09-19T10:40:27;18.20;99.90
5675;DHT22;2860;54.284;10.158;2023-09-19T10:43:06;18.30;99.90
5675;DHT22;2860;54.284;10.158;2023-09-19T10:45:33;18.20;99.90
5675;DHT22;2860;54.284;10.158;2023-09-19T10:48:02;18.10;99.90
5675;DHT22;2860;54.284;10.158;2023-09-19T10:51:08;18.00;99.90
5675;DHT22;2860;54.284;10.158;2023-09-19T10:53:58;18.00;99.90
5675;DHT22;2860;54.284;10.158;2023-09-19T10:56:34;18.10;99.90
5675;DHT22;2860;54.284;10.158;2023-09-19T10:59:09;18.10;99.90
5675;DHT22;2860;54.284;10.158;2023-09-19T11:01:55;18.20;99.90
5675;DHT22;2860;54.284;10.158;2023-09-19T11:04:32;18.20;99.90
5675;DHT22;2860;54.284;10.158;2023-09-19T11:07:14;18.20;99.90
5675;DHT22;2860;54.284;10.158;2023-09-19T11:09:55;18.40;99.90
5675;DHT22;2860;54.284;10.158;2023-09-19T11:15:01;18.70;99.90
5675;DHT22;2860;54.284;10.158;2023-09-19T11:17:33;18.80;99.90
5675;DHT22;2860;54.284;10.158;2023-09-19T11:30:34;18.70;99.90
5675;DHT22;2860;54.284;10.158;2023-09-19T11:33:27;18.70;99.90
5675;DHT22;2860;54.284;10.158;2023-09-19T11:36:11;18.70;99.90
5675;DHT22;2860;54.284;10.158;2023-09-19T11:49:16;18.50;99.90
5675;DHT22;2860;54.284;10.158;2023-09-19T11:51:46;18.70;99.90
5675;DHT22;2860;54.284;10.158;2023-09-19T11:54:13;18.80;99.90
5675;DHT22;2860;54.284;10.158;2023-09-19T11:56:49;18.80;99.90
5675;DHT22;2860;54.284;10.158;2023-09-19T11:59:23;18.70;99.90
5675;DHT22;2860;54.284;10.158;2023-09-19T12:01:54;18.80;99.90
5675;DHT22;2860;54.284;10.158;2023-09-19T12:04:36;18.80;99.90
5675;DHT22;2860;54.284;10.158;2023-09-19T12:07:13;18.70;99.90
5675;DHT22;2860;54.284;10.158;2023-09-19T12:10:05;18.70;99.90
5675;DHT22;2860;54.284;10.158;2023-09-19T12:12:31;18.80;99.90
5675;DHT22;2860;54.284;10.158;2023-09-19T12:14:58;18.70;99.90
5675;DHT22;2860;54.284;10.158;2023-09-19T12:17:36;18.80;99.90
5675;DHT22;2860;54.284;10.158;2023-09-19T12:20:02;18.80;99.90
5675;DHT22;2860;54.284;10.158;2023-09-19T12:22:41;18.80;99.90
5675;DHT22;2860;54.284;10.158;2023-09-19T12:25:09;18.80;99.90
5675;DHT22;2860;54.284;10.158;2023-09-19T12:27:43;19.00;99.90
5675;DHT22;2860;54.284;10.158;2023-09-19T12:30:10;19.20;99.90
5675;DHT22;2860;54.284;10.158;2023-09-19T12:32:39;19.20;99.90
5675;DHT22;2860;54.284;10.158;2023-09-19T12:35:06;19.30;99.90
5675;DHT22;2860;54.284;10.158;2023-09-19T12:37:47;19.30;99.90
5675;DHT22;2860;54.284;10.158;2023-09-19T12:40:19;19.20;99.90
5675;DHT22;2860;54.284;10.158;2023-09-19T12:42:48;19.10;99.90
5675;DHT22;2860;54.284;10.158;2023-09-19T12:45:15;19.00;99.90
5675;DHT22;2860;54.284;10.158;2023-09-19T12:51:13;18.90;99.90
5675;DHT22;2860;54.284;10.158;2023-09-19T12:53:45;18.80;99.90
5675;DHT22;2860;54.284;10.158;2023-09-19T12:56:14;18.90;99.90
5675;DHT22;2860;54.284;10.158;2023-09-19T12:58:51;18.90;99.90
5675;DHT22;2860;54.284;10.158;2023-09-19T13:01:19;18.80;99.90
5675;DHT22;2860;54.284;10.158;2023-09-19T13:03:45;18.70;99.90
5675;DHT22;2860;54.284;10.158;2023-09-19T13:06:11;18.80;99.90
5675;DHT22;2860;54.284;10.158;2023-09-19T13:08:39;18.90;99.90
5675;DHT22;2860;54.284;10.158;2023-09-19T13:11:12;19.00;99.90
5675;DHT22;2860;54.284;10.158;2023-09-19T13:17:03;19.20;99.90
5675;DHT22;2860;54.284;10.158;2023-09-19T13:19:44;19.30;99.90
5675;DHT22;2860;54.284;10.158;2023-09-19T13:22:36;19.40;99.90
5675;DHT22;2860;54.284;10.158;2023-09-19T13:25:01;19.40;99.90
5675;DHT22;2860;54.284;10.158;2023-09-19T13:27:30;19.50;99.90
5675;DHT22;2860;54.284;10.158;2023-09-19T13:29:55;19.60;99.90
5675;DHT22;2860;54.284;10.158;2023-09-19T13:32:21;19.70;99.90
5675;DHT22;2860;54.284;10.158;2023-09-19T13:34:46;19.70;99.90
5675;DHT22;2860;54.284;10.158;2023-09-19T13:37:12;19.70;99.90
5675;DHT22;2860;54.284;10.158;2023-09-19T13:39:38;19.60;99.90
5675;DHT22;2860;54.284;10.158;2023-09-19T13:42:08;19.60;99.90
5675;DHT22;2860;54.284;10.158;2023-09-19T13:44:37;19.50;99.90
5675;DHT22;2860;54.284;10.158;2023-09-19T13:47:03;19.50;99.90
5675;DHT22;2860;54.284;10.158;2023-09-19T13:49:35;19.40;99.90
5675;DHT22;2860;54.284;10.158;2023-09-19T13:52:01;19.40;99.90
5675;DHT22;2860;54.284;10.158;2023-09-19T13:54:28;19.40;99.90
5675;DHT22;2860;54.284;10.158;2023-09-19T13:56:54;19.40;99.90
5675;DHT22;2860;54.284;10.158;2023-09-19T13:59:19;19.40;99.90
5675;DHT22;2860;54.284;10.158;2023-09-19T14:01:46;19.20;99.90
5675;DHT22;2860;54.284;10.158;2023-09-19T14:04:12;19.10;99.90
5675;DHT22;2860;54.284;10.158;2023-09-19T14:06:37;19.00;99.90
5675;DHT22;2860;54.284;10.158;2023-09-19T14:09:03;19.00;99.90
5675;DHT22;2860;54.284;10.158;2023-09-19T14:11:29;19.00;99.90
5675;DHT22;2860;54.284;10.158;2023-09-19T14:13:54;19.00;99.90
5675;DHT22;2860;54.284;10.158;2023-09-19T14:16:20;18.90;99.90
5675;DHT22;2860;54.284;10.158;2023-09-19T14:18:47;18.90;99.90
5675;DHT22;2860;54.284;10.158;2023-09-19T14:21:13;18.90;99.90
5675;DHT22;2860;54.284;10.158;2023-09-19T14:23:40;19.00;99.90
5675;DHT22;2860;54.284;10.158;2023-09-19T14:26:07;19.00;99.90
5675;DHT22;2860;54.284;10.158;2023-09-19T14:28:34;19.00;99.90
5675;DHT22;2860;54.284;10.158;2023-09-19T14:31:09;18.80;99.90
5675;DHT22;2860;54.284;10.158;2023-09-19T14:33:35;18.70;99.90
5675;DHT22;2860;54.284;10.158;2023-09-19T14:36:05;18.60;99.90
5675;DHT22;2860;54.284;10.158;2023-09-19T14:38:33;18.50;99.90
5675;DHT22;2860;54.284;10.158;2023-09-19T14:41:03;18.40;99.90
5675;DHT22;2860;54.284;10.158;2023-09-19T14:43:29;18.40;99.90
5675;DHT22;2860;54.284;10.158;2023-09-19T14:45:56;18.30;99.90
5675;DHT22;2860;54.284;10.158;2023-09-19T14:48:22;18.20;99.90
5675;DHT22;2860;54.284;10.158;2023-09-19T14:50:52;18.10;99.90
5675;DHT22;2860;54.284;10.158;2023-09-19T14:53:17;18.00;99.90
5675;DHT22;2860;54.284;10.158;2023-09-19T14:55:43;17.90;99.90
5675;DHT22;2860;54.284;10.158;2023-09-19T14:58:10;17.80;99.90
5675;DHT22;2860;54.284;10.158;2023-09-19T15:00:37;17.70;99.90
5675;DHT22;2860;54.284;10.158;2023-09-19T15:03:03;17.70;99.90
5675;DHT22;2860;54.284;10.158;2023-09-19T15:05:29;17.60;99.90
5675;DHT22;2860;54.284;10.158;2023-09-19T15:07:57;17.60;99.90
5675;DHT22;2860;54.284;10.158;2023-09-19T15:10:24;17.50;99.90
5675;DHT22;2860;54.284;10.158;2023-09-19T15:12:50;17.50;99.90
5675;DHT22;2860;54.284;10.158;2023-09-19T15:15:16;17.50;99.90
5675;DHT22;2860;54.284;10.158;2023-09-19T15:17:42;17.50;99.90
5675;DHT22;2860;54.284;10.158;2023-09-19T15:20:07;17.50;99.90
5675;DHT22;2860;54.284;10.158;2023-09-19T15:22:34;17.50;99.90
5675;DHT22;2860;54.284;10.158;2023-09-19T15:25:02;17.60;99.90
5675;DHT22;2860;54.284;10.158;2023-09-19T15:27:29;17.70;99.90
5675;DHT22;2860;54.284;10.158;2023-09-19T15:29:56;17.70;99.90
5675;DHT22;2860;54.284;10.158;2023-09-19T15:32:24;17.60;99.90
5675;DHT22;2860;54.284;10.158;2023-09-19T15:34:49;17.50;99.90
5675;DHT22;2860;54.284;10.158;2023-09-19T15:37:15;17.40;99.90
5675;DHT22;2860;54.284;10.158;2023-09-19T15:39:41;17.40;99.90
5675;DHT22;2860;54.284;10.158;2023-09-19T15:42:07;17.40;99.90
5675;DHT22;2860;54.284;10.158;2023-09-19T15:44:32;17.40;99.90
5675;DHT22;2860;54.284;10.158;2023-09-19T15:46:58;17.40;99.90
5675;DHT22;2860;54.284;10.158;2023-09-19T15:49:24;17.30;99.90
5675;DHT22;2860;54.284;10.158;2023-09-19T15:51:49;17.30;99.90
5675;DHT22;2860;54.284;10.158;2023-09-19T15:54:15;17.20;99.90
5675;DHT22;2860;54.284;10.158;2023-09-19T15:56:42;17.10;99.90
5675;DHT22;2860;54.284;10.158;2023-09-19T15:59:08;17.10;99.90
5675;DHT22;2860;54.284;10.158;2023-09-19T16:01:35;17.10;99.90
5675;DHT22;2860;54.284;10.158;2023-09-19T16:04:00;17.00;99.90
5675;DHT22;2860;54.284;10.158;2023-09-19T16:06:28;17.00;99.90
5675;DHT22;2860;54.284;10.158;2023-09-19T16:08:56;17.00;99.90
5675;DHT22;2860;54.284;10.158;2023-09-19T16:11:25;17.00;99.90
5675;DHT22;2860;54.284;10.158;2023-09-19T16:13:51;16.90;99.90
5675;DHT22;2860;54.284;10.158;2023-09-19T16:16:19;16.90;99.90
5675;DHT22;2860;54.284;10.158;2023-09-19T16:18:59;16.80;99.90
5675;DHT22;2860;54.284;10.158;2023-09-19T16:21:32;16.80;99.90
5675;DHT22;2860;54.284;10.158;2023-09-19T16:23:59;16.70;99.90
5675;DHT22;2860;54.284;10.158;2023-09-19T16:26:26;16.70;99.90
5675;DHT22;2860;54.284;10.158;2023-09-19T16:28:53;16.70;99.90
5675;DHT22;2860;54.284;10.158;2023-09-19T16:31:19;16.70;99.90
5675;DHT22;2860;54.284;10.158;2023-09-19T16:33:46;16.60;99.90
5675;DHT22;2860;54.284;10.158;2023-09-19T16:36:17;16.60;99.90
5675;DHT22;2860;54.284;10.158;2023-09-19T16:38:44;16.60;99.90
5675;DHT22;2860;54.284;10.158;2023-09-19T16:41:10;16.70;99.90
5675;DHT22;2860;54.284;10.158;2023-09-19T16:43:39;16.70;99.90
5675;DHT22;2860;54.284;10.158;2023-09-19T16:46:06;16.80;99.90